Aeroporto :
LOGIN :

Iscrizione | Disclaimer

   EN    FR    IT 

 










Sommario :    VFR   VFR Marginale   IFR   IFR Intensivo   IFR Molto Intensivo
Visibilità : 
Base nubi : 
>= 8 km
>= 3000ft
5 / 8 km
1000 / 3000 ft
1500m / 5 km
500 / 1000 ft
800 / 1500m
200 / 500 ft
< 800m
< 200 ft
Simboli :   Temporali  Nebbia  Neve Forte  Precipitazioni Forti  Vento > 20 kt
SIGMETs :   Varie  Temporali  Ghiacco  Turbolenza  Onda orograficha  Ceneri Vulcaniche







- Altitudine del aeroporto : 376 ft


LHKE - Kecskemét

ULTIMO METAR :
  • 201645Z 11004KT CAVOK 19/M04 Q1025 NOSIG RMK BLU

METARs OBSOLETI :
  • 201615Z 09006KT CAVOK 20/M06 Q1025 NOSIG RMK BLU
  • 201545Z 10004KT CAVOK 20/M06 Q1025 NOSIG RMK BLU
  • 201515Z 03004KT CAVOK 21/M06 Q1025 NOSIG RMK BLU
  • 201445Z 08006KT 340V130 CAVOK 20/M06 Q1025 NOSIG RMK BLU
  • 201415Z 06006KT 010V140 CAVOK 21/M06 Q1026 NOSIG RMK BLU
  • 201345Z 05006KT 010V100 CAVOK 21/M06 Q1026 NOSIG RMK BLU

TAF TAF LHKE
Valido dal 20 a 15 ore il 21 a 00 ore UTC


201415Z 2015/2024 04006KT CAVOK
BECMG 2015/2018 15004KT
BECMG 2018/2021 21006KT
Nessun NOTAM noto per questo aeroporto.



MetMap, La meteo Aeronautica in un colpo d'occhio ! - Copyright ORBIFLY Dicembre 2007 - Disclaimer

ORBIFLY MET'MAP TEAM :

Programmazione e sviluppo : Alexandra Zaïnal
Concezione e sviluppo : Baudouin d'Aumeries
Co-Programmazione e sviluppo : Marc-Olivier Méhu
Supporto tecnico e logistico : Manuel Goepfert
Aiuto per la traduzione : Arnaldo La Scala

Contatto : metmap@orbifly.com




FONTI E CREDITI :

   NOAA